sensor_id;sensor_type;location;lat;lon;timestamp;P1;durP1;ratioP1;P2;durP2;ratioP2
7519;SDS011;3801;48.876;10.184;2022-08-27T00:04:40;8.10;;;5.20;;
7519;SDS011;3801;48.876;10.184;2022-08-27T00:09:44;4.80;;;4.13;;
7519;SDS011;3801;48.876;10.184;2022-08-27T00:14:47;8.03;;;5.13;;
7519;SDS011;3801;48.876;10.184;2022-08-27T00:19:52;8.10;;;5.17;;
7519;SDS011;3801;48.876;10.184;2022-08-27T00:24:56;8.47;;;5.73;;
7519;SDS011;3801;48.876;10.184;2022-08-27T00:30:00;9.60;;;5.93;;
7519;SDS011;3801;48.876;10.184;2022-08-27T00:35:05;7.73;;;5.33;;
7519;SDS011;3801;48.876;10.184;2022-08-27T00:40:10;7.17;;;5.77;;
7519;SDS011;3801;48.876;10.184;2022-08-27T00:45:15;10.10;;;7.10;;
7519;SDS011;3801;48.876;10.184;2022-08-27T00:50:22;9.30;;;7.33;;
7519;SDS011;3801;48.876;10.184;2022-08-27T00:55:29;11.87;;;7.07;;
7519;SDS011;3801;48.876;10.184;2022-08-27T01:00:36;11.70;;;7.40;;
7519;SDS011;3801;48.876;10.184;2022-08-27T01:05:41;11.77;;;7.43;;
7519;SDS011;3801;48.876;10.184;2022-08-27T01:10:45;11.57;;;7.87;;
7519;SDS011;3801;48.876;10.184;2022-08-27T01:15:48;12.90;;;7.37;;
7519;SDS011;3801;48.876;10.184;2022-08-27T01:20:55;9.33;;;7.00;;
7519;SDS011;3801;48.876;10.184;2022-08-27T01:26:00;9.30;;;7.43;;
7519;SDS011;3801;48.876;10.184;2022-08-27T01:31:05;11.03;;;7.70;;
7519;SDS011;3801;48.876;10.184;2022-08-27T01:36:09;12.57;;;8.90;;
7519;SDS011;3801;48.876;10.184;2022-08-27T01:41:14;9.30;;;6.93;;
7519;SDS011;3801;48.876;10.184;2022-08-27T01:46:19;12.70;;;7.10;;
7519;SDS011;3801;48.876;10.184;2022-08-27T01:51:22;9.07;;;6.70;;
7519;SDS011;3801;48.876;10.184;2022-08-27T01:56:27;10.27;;;6.87;;
7519;SDS011;3801;48.876;10.184;2022-08-27T02:01:30;11.27;;;7.67;;
7519;SDS011;3801;48.876;10.184;2022-08-27T02:06:34;12.03;;;7.93;;
7519;SDS011;3801;48.876;10.184;2022-08-27T02:11:39;12.17;;;7.27;;
7519;SDS011;3801;48.876;10.184;2022-08-27T02:16:45;11.07;;;7.40;;
7519;SDS011;3801;48.876;10.184;2022-08-27T02:21:53;10.63;;;7.40;;
7519;SDS011;3801;48.876;10.184;2022-08-27T02:27:02;11.10;;;7.10;;
7519;SDS011;3801;48.876;10.184;2022-08-27T02:32:06;13.03;;;7.77;;
7519;SDS011;3801;48.876;10.184;2022-08-27T02:37:25;14.20;;;8.80;;
7519;SDS011;3801;48.876;10.184;2022-08-27T02:42:30;12.33;;;8.00;;
7519;SDS011;3801;48.876;10.184;2022-08-27T02:47:34;14.90;;;9.07;;
7519;SDS011;3801;48.876;10.184;2022-08-27T02:52:37;12.70;;;9.43;;
7519;SDS011;3801;48.876;10.184;2022-08-27T02:57:42;19.67;;;11.57;;
7519;SDS011;3801;48.876;10.184;2022-08-27T03:02:45;14.80;;;10.10;;
7519;SDS011;3801;48.876;10.184;2022-08-27T03:07:49;27.00;;;12.93;;
7519;SDS011;3801;48.876;10.184;2022-08-27T03:12:54;22.27;;;13.87;;
7519;SDS011;3801;48.876;10.184;2022-08-27T03:17:58;25.50;;;13.27;;
7519;SDS011;3801;48.876;10.184;2022-08-27T03:23:21;18.23;;;12.63;;
7519;SDS011;3801;48.876;10.184;2022-08-27T03:28:27;21.00;;;12.17;;
7519;SDS011;3801;48.876;10.184;2022-08-27T03:33:32;25.03;;;15.87;;
7519;SDS011;3801;48.876;10.184;2022-08-27T03:38:37;32.90;;;16.70;;
7519;SDS011;3801;48.876;10.184;2022-08-27T03:43:42;29.67;;;15.97;;
7519;SDS011;3801;48.876;10.184;2022-08-27T03:48:45;29.57;;;15.67;;
7519;SDS011;3801;48.876;10.184;2022-08-27T03:53:52;28.97;;;16.23;;
7519;SDS011;3801;48.876;10.184;2022-08-27T03:58:57;32.80;;;15.33;;
7519;SDS011;3801;48.876;10.184;2022-08-27T04:04:01;30.40;;;15.83;;
7519;SDS011;3801;48.876;10.184;2022-08-27T04:09:04;30.00;;;16.13;;
7519;SDS011;3801;48.876;10.184;2022-08-27T04:14:09;25.73;;;14.30;;
7519;SDS011;3801;48.876;10.184;2022-08-27T04:19:27;30.20;;;17.13;;
7519;SDS011;3801;48.876;10.184;2022-08-27T04:24:34;33.70;;;18.07;;
7519;SDS011;3801;48.876;10.184;2022-08-27T04:29:39;39.40;;;19.63;;
7519;SDS011;3801;48.876;10.184;2022-08-27T04:34:43;37.77;;;19.90;;
7519;SDS011;3801;48.876;10.184;2022-08-27T04:39:46;42.50;;;21.13;;
7519;SDS011;3801;48.876;10.184;2022-08-27T04:44:52;45.73;;;21.60;;
7519;SDS011;3801;48.876;10.184;2022-08-27T04:49:55;41.00;;;20.60;;
7519;SDS011;3801;48.876;10.184;2022-08-27T04:54:59;48.10;;;23.73;;
7519;SDS011;3801;48.876;10.184;2022-08-27T05:00:04;71.10;;;29.33;;
7519;SDS011;3801;48.876;10.184;2022-08-27T05:05:09;72.60;;;28.87;;
7519;SDS011;3801;48.876;10.184;2022-08-27T05:10:16;75.87;;;28.87;;
7519;SDS011;3801;48.876;10.184;2022-08-27T05:15:21;78.00;;;28.37;;
7519;SDS011;3801;48.876;10.184;2022-08-27T05:20:25;70.67;;;27.87;;
7519;SDS011;3801;48.876;10.184;2022-08-27T05:25:29;63.23;;;27.03;;
7519;SDS011;3801;48.876;10.184;2022-08-27T05:30:36;59.90;;;25.63;;
7519;SDS011;3801;48.876;10.184;2022-08-27T05:35:39;66.60;;;26.60;;
7519;SDS011;3801;48.876;10.184;2022-08-27T05:40:44;58.90;;;25.10;;
7519;SDS011;3801;48.876;10.184;2022-08-27T05:45:50;62.77;;;22.77;;
7519;SDS011;3801;48.876;10.184;2022-08-27T05:50:53;69.90;;;25.77;;
7519;SDS011;3801;48.876;10.184;2022-08-27T05:55:57;66.03;;;24.70;;
7519;SDS011;3801;48.876;10.184;2022-08-27T06:01:02;79.33;;;26.10;;
7519;SDS011;3801;48.876;10.184;2022-08-27T06:06:11;74.30;;;26.10;;
7519;SDS011;3801;48.876;10.184;2022-08-27T06:11:15;65.73;;;25.07;;
7519;SDS011;3801;48.876;10.184;2022-08-27T06:16:21;65.70;;;26.10;;
7519;SDS011;3801;48.876;10.184;2022-08-27T06:21:24;65.37;;;25.67;;
7519;SDS011;3801;48.876;10.184;2022-08-27T06:26:28;59.97;;;23.30;;
7519;SDS011;3801;48.876;10.184;2022-08-27T06:31:33;65.83;;;24.63;;
7519;SDS011;3801;48.876;10.184;2022-08-27T06:36:38;78.30;;;26.97;;
7519;SDS011;3801;48.876;10.184;2022-08-27T06:41:42;65.93;;;25.27;;
7519;SDS011;3801;48.876;10.184;2022-08-27T06:46:47;66.33;;;25.50;;
7519;SDS011;3801;48.876;10.184;2022-08-27T06:51:50;82.80;;;27.83;;
7519;SDS011;3801;48.876;10.184;2022-08-27T06:56:56;71.87;;;26.40;;
7519;SDS011;3801;48.876;10.184;2022-08-27T07:02:01;63.07;;;25.60;;
7519;SDS011;3801;48.876;10.184;2022-08-27T07:07:05;70.40;;;25.23;;
7519;SDS011;3801;48.876;10.184;2022-08-27T07:12:09;74.53;;;26.70;;
7519;SDS011;3801;48.876;10.184;2022-08-27T07:17:14;70.80;;;26.30;;
7519;SDS011;3801;48.876;10.184;2022-08-27T07:22:18;66.53;;;25.87;;
7519;SDS011;3801;48.876;10.184;2022-08-27T07:27:21;76.90;;;28.57;;
7519;SDS011;3801;48.876;10.184;2022-08-27T07:32:26;71.77;;;26.93;;
7519;SDS011;3801;48.876;10.184;2022-08-27T07:37:32;69.90;;;27.13;;
7519;SDS011;3801;48.876;10.184;2022-08-27T07:42:36;68.30;;;29.07;;
7519;SDS011;3801;48.876;10.184;2022-08-27T07:47:58;60.40;;;27.60;;
7519;SDS011;3801;48.876;10.184;2022-08-27T07:53:02;57.87;;;26.83;;
7519;SDS011;3801;48.876;10.184;2022-08-27T07:58:05;55.87;;;28.97;;
7519;SDS011;3801;48.876;10.184;2022-08-27T08:03:14;55.17;;;27.50;;
7519;SDS011;3801;48.876;10.184;2022-08-27T08:08:17;53.70;;;26.17;;
7519;SDS011;3801;48.876;10.184;2022-08-27T08:13:21;56.07;;;28.07;;
7519;SDS011;3801;48.876;10.184;2022-08-27T08:18:26;50.40;;;27.93;;
7519;SDS011;3801;48.876;10.184;2022-08-27T08:23:29;61.63;;;29.00;;
7519;SDS011;3801;48.876;10.184;2022-08-27T08:28:33;46.27;;;27.27;;
7519;SDS011;3801;48.876;10.184;2022-08-27T08:33:39;47.13;;;26.40;;
7519;SDS011;3801;48.876;10.184;2022-08-27T08:38:43;46.17;;;25.73;;
7519;SDS011;3801;48.876;10.184;2022-08-27T08:43:47;47.43;;;26.57;;
7519;SDS011;3801;48.876;10.184;2022-08-27T08:48:54;45.40;;;25.43;;
7519;SDS011;3801;48.876;10.184;2022-08-27T08:54:00;42.40;;;25.47;;
7519;SDS011;3801;48.876;10.184;2022-08-27T08:59:06;49.27;;;28.20;;
7519;SDS011;3801;48.876;10.184;2022-08-27T09:04:12;44.57;;;26.43;;
7519;SDS011;3801;48.876;10.184;2022-08-27T09:09:18;51.50;;;27.00;;
7519;SDS011;3801;48.876;10.184;2022-08-27T09:14:25;41.47;;;25.73;;
7519;SDS011;3801;48.876;10.184;2022-08-27T09:19:34;46.93;;;24.87;;
7519;SDS011;3801;48.876;10.184;2022-08-27T09:24:41;11.33;;;7.77;;
7519;SDS011;3801;48.876;10.184;2022-08-27T09:29:47;12.00;;;6.63;;
7519;SDS011;3801;48.876;10.184;2022-08-27T09:34:55;8.83;;;4.57;;
7519;SDS011;3801;48.876;10.184;2022-08-27T09:40:00;7.57;;;4.23;;
7519;SDS011;3801;48.876;10.184;2022-08-27T09:45:15;3.17;;;2.80;;
7519;SDS011;3801;48.876;10.184;2022-08-27T09:50:21;5.00;;;3.43;;
7519;SDS011;3801;48.876;10.184;2022-08-27T09:55:28;4.33;;;3.13;;
7519;SDS011;3801;48.876;10.184;2022-08-27T10:00:34;4.60;;;2.90;;
7519;SDS011;3801;48.876;10.184;2022-08-27T10:05:41;4.50;;;3.27;;
7519;SDS011;3801;48.876;10.184;2022-08-27T10:10:47;4.97;;;3.63;;
7519;SDS011;3801;48.876;10.184;2022-08-27T10:15:56;6.30;;;3.90;;
7519;SDS011;3801;48.876;10.184;2022-08-27T10:21:05;4.57;;;3.73;;
7519;SDS011;3801;48.876;10.184;2022-08-27T10:26:11;5.60;;;4.40;;
7519;SDS011;3801;48.876;10.184;2022-08-27T10:31:18;4.47;;;3.70;;
7519;SDS011;3801;48.876;10.184;2022-08-27T10:36:31;4.70;;;4.17;;
7519;SDS011;3801;48.876;10.184;2022-08-27T10:41:37;4.80;;;3.83;;
7519;SDS011;3801;48.876;10.184;2022-08-27T10:46:47;4.47;;;3.73;;
7519;SDS011;3801;48.876;10.184;2022-08-27T10:51:59;6.70;;;3.57;;
7519;SDS011;3801;48.876;10.184;2022-08-27T10:57:11;4.23;;;3.43;;
7519;SDS011;3801;48.876;10.184;2022-08-27T11:02:39;5.53;;;4.00;;
7519;SDS011;3801;48.876;10.184;2022-08-27T11:07:46;4.33;;;3.73;;
7519;SDS011;3801;48.876;10.184;2022-08-27T11:12:53;7.03;;;4.27;;
7519;SDS011;3801;48.876;10.184;2022-08-27T11:17:58;6.93;;;4.27;;
7519;SDS011;3801;48.876;10.184;2022-08-27T11:23:05;4.63;;;3.90;;
7519;SDS011;3801;48.876;10.184;2022-08-27T11:28:11;5.60;;;4.50;;
7519;SDS011;3801;48.876;10.184;2022-08-27T11:33:15;7.83;;;4.70;;
7519;SDS011;3801;48.876;10.184;2022-08-27T11:38:25;5.20;;;4.10;;
7519;SDS011;3801;48.876;10.184;2022-08-27T11:43:31;5.50;;;4.57;;
7519;SDS011;3801;48.876;10.184;2022-08-27T11:48:37;6.27;;;4.13;;
7519;SDS011;3801;48.876;10.184;2022-08-27T11:53:53;5.73;;;4.60;;
7519;SDS011;3801;48.876;10.184;2022-08-27T11:59:07;6.10;;;4.70;;
7519;SDS011;3801;48.876;10.184;2022-08-27T12:04:20;7.03;;;4.73;;
7519;SDS011;3801;48.876;10.184;2022-08-27T12:09:25;6.23;;;4.73;;
7519;SDS011;3801;48.876;10.184;2022-08-27T12:14:34;5.37;;;4.33;;
7519;SDS011;3801;48.876;10.184;2022-08-27T12:19:44;5.53;;;4.53;;
7519;SDS011;3801;48.876;10.184;2022-08-27T12:24:50;4.80;;;3.60;;
7519;SDS011;3801;48.876;10.184;2022-08-27T12:29:57;7.77;;;4.30;;
7519;SDS011;3801;48.876;10.184;2022-08-27T12:35:03;5.60;;;4.30;;
7519;SDS011;3801;48.876;10.184;2022-08-27T12:40:12;6.07;;;4.80;;
7519;SDS011;3801;48.876;10.184;2022-08-27T12:45:22;5.53;;;4.50;;
7519;SDS011;3801;48.876;10.184;2022-08-27T12:50:26;4.83;;;4.33;;
7519;SDS011;3801;48.876;10.184;2022-08-27T12:55:41;5.13;;;4.43;;
7519;SDS011;3801;48.876;10.184;2022-08-27T13:01:06;5.37;;;4.43;;
7519;SDS011;3801;48.876;10.184;2022-08-27T13:06:15;5.70;;;4.73;;
7519;SDS011;3801;48.876;10.184;2022-08-27T13:11:21;6.20;;;4.83;;
7519;SDS011;3801;48.876;10.184;2022-08-27T13:16:24;6.50;;;5.10;;
7519;SDS011;3801;48.876;10.184;2022-08-27T13:21:30;6.93;;;5.97;;
7519;SDS011;3801;48.876;10.184;2022-08-27T13:26:36;7.13;;;6.00;;
7519;SDS011;3801;48.876;10.184;2022-08-27T13:31:40;8.47;;;6.23;;
7519;SDS011;3801;48.876;10.184;2022-08-27T13:36:52;8.67;;;6.97;;
7519;SDS011;3801;48.876;10.184;2022-08-27T13:41:58;11.47;;;7.67;;
7519;SDS011;3801;48.876;10.184;2022-08-27T13:47:03;9.20;;;7.43;;
7519;SDS011;3801;48.876;10.184;2022-08-27T13:52:09;10.33;;;7.17;;
7519;SDS011;3801;48.876;10.184;2022-08-27T13:57:23;11.37;;;6.97;;
7519;SDS011;3801;48.876;10.184;2022-08-27T14:02:27;12.40;;;6.83;;
7519;SDS011;3801;48.876;10.184;2022-08-27T14:07:33;7.70;;;6.70;;
7519;SDS011;3801;48.876;10.184;2022-08-27T14:12:39;8.53;;;7.17;;
7519;SDS011;3801;48.876;10.184;2022-08-27T14:17:43;9.37;;;7.07;;
7519;SDS011;3801;48.876;10.184;2022-08-27T14:22:48;10.17;;;7.33;;
7519;SDS011;3801;48.876;10.184;2022-08-27T14:27:53;10.63;;;8.07;;
7519;SDS011;3801;48.876;10.184;2022-08-27T14:32:58;11.80;;;7.50;;
7519;SDS011;3801;48.876;10.184;2022-08-27T14:38:03;10.63;;;8.47;;
7519;SDS011;3801;48.876;10.184;2022-08-27T14:43:11;12.20;;;8.30;;
7519;SDS011;3801;48.876;10.184;2022-08-27T14:48:17;10.50;;;7.83;;
7519;SDS011;3801;48.876;10.184;2022-08-27T14:53:29;9.90;;;7.67;;
7519;SDS011;3801;48.876;10.184;2022-08-27T14:58:34;10.87;;;9.13;;
7519;SDS011;3801;48.876;10.184;2022-08-27T15:03:37;11.53;;;9.23;;
7519;SDS011;3801;48.876;10.184;2022-08-27T15:08:41;12.23;;;10.00;;
7519;SDS011;3801;48.876;10.184;2022-08-27T15:13:46;13.33;;;10.80;;
7519;SDS011;3801;48.876;10.184;2022-08-27T15:18:50;13.77;;;10.60;;
7519;SDS011;3801;48.876;10.184;2022-08-27T15:24:03;12.00;;;9.67;;
7519;SDS011;3801;48.876;10.184;2022-08-27T15:29:08;13.80;;;9.77;;
7519;SDS011;3801;48.876;10.184;2022-08-27T15:34:12;13.33;;;9.57;;
7519;SDS011;3801;48.876;10.184;2022-08-27T15:39:15;17.60;;;11.23;;
7519;SDS011;3801;48.876;10.184;2022-08-27T15:44:20;13.97;;;10.77;;
7519;SDS011;3801;48.876;10.184;2022-08-27T15:49:24;15.07;;;11.57;;
7519;SDS011;3801;48.876;10.184;2022-08-27T15:54:27;15.30;;;11.07;;
7519;SDS011;3801;48.876;10.184;2022-08-27T15:59:32;14.20;;;11.13;;
7519;SDS011;3801;48.876;10.184;2022-08-27T16:04:38;15.83;;;11.97;;
7519;SDS011;3801;48.876;10.184;2022-08-27T16:09:41;16.07;;;10.83;;
7519;SDS011;3801;48.876;10.184;2022-08-27T16:14:47;14.97;;;10.40;;
7519;SDS011;3801;48.876;10.184;2022-08-27T16:19:50;16.50;;;10.37;;
7519;SDS011;3801;48.876;10.184;2022-08-27T16:24:54;16.27;;;10.97;;
7519;SDS011;3801;48.876;10.184;2022-08-27T16:29:59;15.27;;;9.93;;
7519;SDS011;3801;48.876;10.184;2022-08-27T16:35:02;19.00;;;13.13;;
7519;SDS011;3801;48.876;10.184;2022-08-27T16:40:06;17.17;;;12.07;;
7519;SDS011;3801;48.876;10.184;2022-08-27T16:45:11;17.23;;;11.80;;
7519;SDS011;3801;48.876;10.184;2022-08-27T16:50:15;19.20;;;12.10;;
7519;SDS011;3801;48.876;10.184;2022-08-27T16:55:37;16.40;;;12.03;;
7519;SDS011;3801;48.876;10.184;2022-08-27T17:00:42;17.60;;;12.70;;
7519;SDS011;3801;48.876;10.184;2022-08-27T17:05:45;19.27;;;12.60;;
7519;SDS011;3801;48.876;10.184;2022-08-27T17:10:51;24.10;;;13.37;;
7519;SDS011;3801;48.876;10.184;2022-08-27T17:15:56;18.10;;;12.03;;
7519;SDS011;3801;48.876;10.184;2022-08-27T17:21:02;18.20;;;12.53;;
7519;SDS011;3801;48.876;10.184;2022-08-27T17:26:07;17.23;;;11.00;;
7519;SDS011;3801;48.876;10.184;2022-08-27T17:31:13;15.17;;;10.70;;
7519;SDS011;3801;48.876;10.184;2022-08-27T17:36:29;13.70;;;9.63;;
7519;SDS011;3801;48.876;10.184;2022-08-27T17:41:35;13.30;;;9.17;;
7519;SDS011;3801;48.876;10.184;2022-08-27T17:46:40;11.87;;;9.27;;
7519;SDS011;3801;48.876;10.184;2022-08-27T17:51:44;15.00;;;11.03;;
7519;SDS011;3801;48.876;10.184;2022-08-27T17:56:49;15.43;;;10.53;;
7519;SDS011;3801;48.876;10.184;2022-08-27T18:01:54;14.13;;;10.73;;
7519;SDS011;3801;48.876;10.184;2022-08-27T18:06:57;16.50;;;11.30;;
7519;SDS011;3801;48.876;10.184;2022-08-27T18:12:01;18.30;;;12.03;;
7519;SDS011;3801;48.876;10.184;2022-08-27T18:17:06;17.17;;;11.50;;
7519;SDS011;3801;48.876;10.184;2022-08-27T18:22:14;16.53;;;11.40;;
7519;SDS011;3801;48.876;10.184;2022-08-27T18:27:18;14.87;;;11.33;;
7519;SDS011;3801;48.876;10.184;2022-08-27T18:32:23;19.90;;;12.07;;
7519;SDS011;3801;48.876;10.184;2022-08-27T18:37:27;20.43;;;13.73;;
7519;SDS011;3801;48.876;10.184;2022-08-27T18:42:30;19.37;;;13.27;;
7519;SDS011;3801;48.876;10.184;2022-08-27T18:47:37;16.60;;;11.77;;
7519;SDS011;3801;48.876;10.184;2022-08-27T18:52:41;15.80;;;11.10;;
7519;SDS011;3801;48.876;10.184;2022-08-27T18:57:45;12.03;;;9.60;;
7519;SDS011;3801;48.876;10.184;2022-08-27T19:02:49;13.50;;;10.27;;
7519;SDS011;3801;48.876;10.184;2022-08-27T19:07:54;18.87;;;11.47;;
7519;SDS011;3801;48.876;10.184;2022-08-27T19:12:57;14.30;;;10.80;;
7519;SDS011;3801;48.876;10.184;2022-08-27T19:18:02;17.63;;;11.27;;
7519;SDS011;3801;48.876;10.184;2022-08-27T19:23:06;14.20;;;10.70;;
7519;SDS011;3801;48.876;10.184;2022-08-27T19:28:09;17.47;;;10.57;;
7519;SDS011;3801;48.876;10.184;2022-08-27T19:33:14;15.70;;;10.47;;
7519;SDS011;3801;48.876;10.184;2022-08-27T19:38:18;17.07;;;10.30;;
7519;SDS011;3801;48.876;10.184;2022-08-27T19:43:21;14.77;;;10.30;;
7519;SDS011;3801;48.876;10.184;2022-08-27T19:48:26;17.13;;;10.93;;
7519;SDS011;3801;48.876;10.184;2022-08-27T19:53:30;16.33;;;9.67;;
7519;SDS011;3801;48.876;10.184;2022-08-27T19:58:34;19.40;;;10.43;;
7519;SDS011;3801;48.876;10.184;2022-08-27T20:03:39;15.97;;;10.27;;
7519;SDS011;3801;48.876;10.184;2022-08-27T20:08:42;15.37;;;10.27;;
7519;SDS011;3801;48.876;10.184;2022-08-27T20:13:48;14.80;;;10.60;;
7519;SDS011;3801;48.876;10.184;2022-08-27T20:18:53;20.47;;;11.27;;
7519;SDS011;3801;48.876;10.184;2022-08-27T20:24:01;18.93;;;10.97;;
7519;SDS011;3801;48.876;10.184;2022-08-27T20:29:05;13.37;;;9.73;;
7519;SDS011;3801;48.876;10.184;2022-08-27T20:34:11;14.33;;;9.57;;
7519;SDS011;3801;48.876;10.184;2022-08-27T20:39:15;13.87;;;9.87;;
7519;SDS011;3801;48.876;10.184;2022-08-27T20:44:18;9.93;;;8.03;;
7519;SDS011;3801;48.876;10.184;2022-08-27T20:49:23;10.63;;;7.83;;
7519;SDS011;3801;48.876;10.184;2022-08-27T20:54:28;11.00;;;7.57;;
7519;SDS011;3801;48.876;10.184;2022-08-27T20:59:32;9.67;;;7.47;;
7519;SDS011;3801;48.876;10.184;2022-08-27T21:04:54;10.03;;;7.97;;
7519;SDS011;3801;48.876;10.184;2022-08-27T21:09:58;10.03;;;7.47;;
7519;SDS011;3801;48.876;10.184;2022-08-27T21:15:02;11.43;;;8.43;;
7519;SDS011;3801;48.876;10.184;2022-08-27T21:20:08;12.47;;;8.80;;
7519;SDS011;3801;48.876;10.184;2022-08-27T21:25:12;11.93;;;8.53;;
7519;SDS011;3801;48.876;10.184;2022-08-27T21:30:16;10.93;;;7.80;;
7519;SDS011;3801;48.876;10.184;2022-08-27T21:35:21;13.77;;;8.23;;
7519;SDS011;3801;48.876;10.184;2022-08-27T21:40:27;15.43;;;8.67;;
7519;SDS011;3801;48.876;10.184;2022-08-27T21:45:31;15.50;;;9.73;;
7519;SDS011;3801;48.876;10.184;2022-08-27T21:50:36;15.97;;;9.73;;
7519;SDS011;3801;48.876;10.184;2022-08-27T21:55:39;16.67;;;9.47;;
7519;SDS011;3801;48.876;10.184;2022-08-27T22:00:43;16.27;;;10.07;;
7519;SDS011;3801;48.876;10.184;2022-08-27T22:05:50;15.50;;;9.97;;
7519;SDS011;3801;48.876;10.184;2022-08-27T22:10:54;19.37;;;10.70;;
7519;SDS011;3801;48.876;10.184;2022-08-27T22:15:58;17.67;;;10.30;;
7519;SDS011;3801;48.876;10.184;2022-08-27T22:21:04;16.93;;;10.07;;
7519;SDS011;3801;48.876;10.184;2022-08-27T22:26:07;20.60;;;10.73;;
7519;SDS011;3801;48.876;10.184;2022-08-27T22:31:11;19.00;;;10.03;;
7519;SDS011;3801;48.876;10.184;2022-08-27T22:36:16;16.10;;;11.23;;
7519;SDS011;3801;48.876;10.184;2022-08-27T22:41:19;16.90;;;10.57;;
7519;SDS011;3801;48.876;10.184;2022-08-27T22:46:23;15.10;;;10.60;;
7519;SDS011;3801;48.876;10.184;2022-08-27T22:51:27;17.50;;;11.10;;
7519;SDS011;3801;48.876;10.184;2022-08-27T22:56:31;20.20;;;11.07;;
7519;SDS011;3801;48.876;10.184;2022-08-27T23:01:34;18.37;;;11.97;;
7519;SDS011;3801;48.876;10.184;2022-08-27T23:06:39;21.07;;;12.80;;
7519;SDS011;3801;48.876;10.184;2022-08-27T23:11:43;20.67;;;12.17;;
7519;SDS011;3801;48.876;10.184;2022-08-27T23:16:46;25.63;;;13.13;;
7519;SDS011;3801;48.876;10.184;2022-08-27T23:21:51;22.77;;;13.67;;
7519;SDS011;3801;48.876;10.184;2022-08-27T23:26:54;27.67;;;14.60;;
7519;SDS011;3801;48.876;10.184;2022-08-27T23:32:15;25.77;;;14.93;;
7519;SDS011;3801;48.876;10.184;2022-08-27T23:37:20;23.47;;;15.00;;
7519;SDS011;3801;48.876;10.184;2022-08-27T23:42:24;25.73;;;13.93;;
7519;SDS011;3801;48.876;10.184;2022-08-27T23:47:29;26.80;;;14.53;;
7519;SDS011;3801;48.876;10.184;2022-08-27T23:52:33;21.83;;;14.63;;
7519;SDS011;3801;48.876;10.184;2022-08-27T23:57:37;23.83;;;13.90;;
